createdAt,value
2019-05-25T00:04:12.582Z,20.17
2019-05-25T00:09:15.919Z,21.30
2019-05-25T00:14:18.962Z,21.45
2019-05-25T00:19:22.048Z,21.15
2019-05-25T00:24:25.400Z,18.37
2019-05-25T00:29:28.627Z,20.62
2019-05-25T00:34:31.968Z,19.42
2019-05-25T00:39:35.147Z,19.07
2019-05-25T00:44:38.485Z,17.05
2019-05-25T00:49:41.577Z,16.65
2019-05-25T00:54:44.680Z,15.78
2019-05-25T00:59:47.743Z,17.87
2019-05-25T01:04:51.008Z,18.15
2019-05-25T01:09:53.983Z,17.67
2019-05-25T01:14:57.071Z,19.45
2019-05-25T01:20:00.366Z,20.65
2019-05-25T01:25:04.249Z,19.70
2019-05-25T01:30:09.077Z,20.15
2019-05-25T01:35:12.056Z,20.15
2019-05-25T01:40:15.993Z,19.07
2019-05-25T01:45:19.148Z,18.80
2019-05-25T01:50:22.352Z,20.70
2019-05-25T01:55:25.469Z,18.90
2019-05-25T02:00:28.566Z,19.02
2019-05-25T02:05:31.789Z,19.07
2019-05-25T02:10:35.001Z,19.35
2019-05-25T02:15:38.102Z,19.40
2019-05-25T02:20:41.125Z,18.77
2019-05-25T02:25:44.325Z,19.65
2019-05-25T02:30:47.534Z,19.60
2019-05-25T02:35:50.510Z,18.12
2019-05-25T02:40:53.693Z,18.40
2019-05-25T02:45:56.763Z,18.62
2019-05-25T02:50:59.861Z,19.10
2019-05-25T02:56:03.540Z,16.57
2019-05-25T03:01:07.121Z,17.30
2019-05-25T03:06:10.481Z,17.17
2019-05-25T03:11:14.184Z,16.57
2019-05-25T03:16:17.415Z,16.73
2019-05-25T03:21:20.661Z,17.82
2019-05-25T03:26:23.770Z,17.15
2019-05-25T03:31:26.821Z,18.87
2019-05-25T03:36:29.997Z,17.75
2019-05-25T03:41:33.005Z,19.12
2019-05-25T03:46:36.312Z,17.73
2019-05-25T03:51:39.416Z,17.23
2019-05-25T03:56:42.883Z,17.92
2019-05-25T04:01:46.349Z,17.10
2019-05-25T04:06:49.278Z,18.12
2019-05-25T04:11:52.632Z,18.57
2019-05-25T04:16:55.698Z,17.55
2019-05-25T04:21:58.660Z,18.67
2019-05-25T04:27:01.802Z,17.87
2019-05-25T04:32:05.162Z,18.15
2019-05-25T04:37:08.315Z,17.85
2019-05-25T04:42:11.385Z,17.95
2019-05-25T04:47:26.668Z,18.95
2019-05-25T04:52:19.859Z,17.40
2019-05-25T04:57:22.993Z,18.62
2019-05-25T05:02:26.262Z,16.52
2019-05-25T05:07:29.225Z,16.62
2019-05-25T05:12:32.320Z,17.45
2019-05-25T05:17:35.650Z,15.75
2019-05-25T05:22:38.925Z,16.02
2019-05-25T05:27:42.055Z,14.55
2019-05-25T05:32:45.282Z,14.70
2019-05-25T05:37:48.593Z,15.47
2019-05-25T05:42:54.318Z,15.13
2019-05-25T05:48:00.363Z,14.73
2019-05-25T05:53:03.644Z,16.48
2019-05-25T05:58:07.731Z,16.60
2019-05-25T06:03:11.295Z,14.18
2019-05-25T06:08:14.500Z,14.98
2019-05-25T06:13:17.614Z,14.90
2019-05-25T06:18:20.713Z,14.70
2019-05-25T06:23:24.126Z,14.70
2019-05-25T06:28:27.254Z,14.38
2019-05-25T06:33:30.236Z,15.67
2019-05-25T06:38:33.550Z,15.32
2019-05-25T06:43:36.718Z,13.90
2019-05-25T06:48:39.886Z,12.55
2019-05-25T06:53:43.080Z,12.73
2019-05-25T06:58:46.129Z,13.05
2019-05-25T07:03:49.098Z,12.63
2019-05-25T07:08:52.190Z,11.33
2019-05-25T07:13:55.324Z,13.03
2019-05-25T07:18:58.740Z,12.40
2019-05-25T07:24:03.198Z,10.60
2019-05-25T07:29:06.660Z,10.98
2019-05-25T07:34:09.682Z,10.05
2019-05-25T07:39:13.314Z,10.45
2019-05-25T07:44:16.426Z,10.35
2019-05-25T07:49:19.653Z,10.35
2019-05-25T07:54:22.640Z,10.43
2019-05-25T07:59:25.770Z,8.33
2019-05-25T08:04:29.080Z,7.33
2019-05-25T08:09:32.043Z,7.05
2019-05-25T08:14:35.123Z,6.92
2019-05-25T08:19:38.205Z,7.42
2019-05-25T08:24:41.264Z,6.72
2019-05-25T08:29:44.394Z,6.67
2019-05-25T08:34:48.355Z,5.62
2019-05-25T08:39:51.360Z,4.97
2019-05-25T08:44:54.428Z,5.00
2019-05-25T08:49:57.965Z,4.62
2019-05-25T08:55:00.983Z,6.33
2019-05-25T09:00:05.999Z,4.97
2019-05-25T09:05:09.762Z,5.55
2019-05-25T09:10:13.167Z,4.70
2019-05-25T09:15:17.535Z,4.30
2019-05-25T09:20:20.661Z,4.60
2019-05-25T09:25:23.943Z,5.03
2019-05-25T09:30:27.139Z,4.62
2019-05-25T09:35:30.331Z,4.33
2019-05-25T09:40:33.515Z,5.22
2019-05-25T09:45:36.863Z,4.20
2019-05-25T09:50:40.245Z,3.40
2019-05-25T09:55:43.342Z,3.50
2019-05-25T10:00:46.344Z,3.22
2019-05-25T10:05:50.727Z,3.72
2019-05-25T10:10:53.886Z,3.58
2019-05-25T10:15:57.046Z,3.72
2019-05-25T10:21:00.226Z,3.72
2019-05-25T10:26:03.467Z,3.47
2019-05-25T10:31:06.741Z,4.45
2019-05-25T10:36:09.854Z,3.80
2019-05-25T10:41:13.110Z,3.95
2019-05-25T10:46:16.212Z,3.62
2019-05-25T10:51:19.446Z,4.28
2019-05-25T10:56:22.621Z,4.05
2019-05-25T11:01:25.718Z,3.60
2019-05-25T11:06:29.156Z,3.67
2019-05-25T11:11:32.297Z,3.55
2019-05-25T11:16:35.485Z,2.90
2019-05-25T11:21:38.772Z,3.30
2019-05-25T11:26:41.820Z,3.65
2019-05-25T11:31:54.618Z,3.80
2019-05-25T11:36:50.245Z,2.98
2019-05-25T11:41:53.373Z,3.60
2019-05-25T11:46:56.684Z,3.02
2019-05-25T11:52:00.211Z,4.08
2019-05-25T11:57:03.421Z,4.20
2019-05-25T12:02:06.653Z,3.72
2019-05-25T12:07:09.718Z,3.55
2019-05-25T12:12:13.203Z,3.85
2019-05-25T12:17:16.223Z,2.98
2019-05-25T12:22:19.356Z,3.58
2019-05-25T12:27:22.478Z,2.90
2019-05-25T12:32:25.716Z,3.15
2019-05-25T12:37:29.000Z,4.03
2019-05-25T12:42:32.098Z,3.50
2019-05-25T12:47:35.177Z,4.08
2019-05-25T12:52:38.575Z,3.30
2019-05-25T12:57:41.658Z,3.00
2019-05-25T13:02:46.195Z,3.50
2019-05-25T13:07:49.366Z,3.33
2019-05-25T13:12:53.443Z,2.92
2019-05-25T13:17:56.483Z,2.70
2019-05-25T13:22:59.536Z,3.30
2019-05-25T13:28:02.534Z,2.70
2019-05-25T13:33:05.680Z,2.92
2019-05-25T13:38:10.799Z,2.92
2019-05-25T13:43:13.934Z,3.17
2019-05-25T13:48:17.317Z,3.30
2019-05-25T13:53:20.546Z,3.00
2019-05-25T13:58:23.789Z,3.43
2019-05-25T14:03:26.877Z,2.80
2019-05-25T14:08:29.984Z,2.85
2019-05-25T14:13:33.093Z,3.25
2019-05-25T14:18:36.288Z,3.35
2019-05-25T14:23:39.411Z,3.15
2019-05-25T14:28:42.576Z,2.80
2019-05-25T14:33:45.661Z,3.02
2019-05-25T14:38:48.632Z,2.63
2019-05-25T14:43:51.610Z,3.17
2019-05-25T14:48:54.576Z,2.47
2019-05-25T14:53:57.581Z,3.35
2019-05-25T14:59:00.657Z,2.92
2019-05-25T15:04:03.785Z,3.37
2019-05-25T15:09:07.068Z,3.65
2019-05-25T15:14:10.000Z,3.35
2019-05-25T15:19:13.083Z,3.50
2019-05-25T15:24:16.170Z,3.45
2019-05-25T15:29:19.223Z,3.52
2019-05-25T15:34:22.225Z,4.30
2019-05-25T15:39:25.242Z,4.37
2019-05-25T15:44:28.181Z,4.30
2019-05-25T15:49:33.664Z,3.90
2019-05-25T15:54:35.999Z,3.45
2019-05-25T15:59:39.054Z,3.67
2019-05-25T16:04:42.184Z,3.87
2019-05-25T16:09:45.218Z,3.72
2019-05-25T16:14:48.199Z,3.60
2019-05-25T16:19:51.315Z,3.58
2019-05-25T16:24:54.390Z,4.58
2019-05-25T16:29:57.710Z,3.80
2019-05-25T16:35:00.737Z,3.00
2019-05-25T16:40:04.034Z,3.55
2019-05-25T16:45:07.597Z,3.72
2019-05-25T16:50:14.952Z,4.30
2019-05-25T16:55:17.929Z,4.45
2019-05-25T17:00:30.015Z,4.25
2019-05-25T17:05:32.956Z,3.22
2019-05-25T17:10:36.029Z,4.05
2019-05-25T17:15:39.140Z,4.35
2019-05-25T17:20:42.102Z,3.80
2019-05-25T17:25:45.071Z,4.12
2019-05-25T17:30:48.165Z,4.00
2019-05-25T17:35:51.402Z,4.40
2019-05-25T17:40:54.386Z,4.28
2019-05-25T17:45:57.390Z,5.45
2019-05-25T17:51:00.398Z,5.70
2019-05-25T17:56:03.723Z,11.48
2019-05-25T18:01:06.673Z,5.20
2019-05-25T18:06:09.668Z,7.12
2019-05-25T18:11:12.612Z,7.97
2019-05-25T18:16:15.618Z,8.75
2019-05-25T18:21:18.697Z,10.05
2019-05-25T18:26:21.674Z,22.67
2019-05-25T18:31:25.012Z,41.23
2019-05-25T18:36:27.974Z,25.97
2019-05-25T18:41:31.056Z,17.37
2019-05-25T18:46:34.096Z,12.90
2019-05-25T18:51:37.192Z,9.63
2019-05-25T18:56:40.287Z,8.00
2019-05-25T19:01:43.625Z,7.80
2019-05-25T19:06:46.725Z,9.20
2019-05-25T19:11:49.875Z,6.20
2019-05-25T19:16:52.977Z,7.50
2019-05-25T19:21:56.111Z,7.90
2019-05-25T19:26:59.382Z,7.78
2019-05-25T19:32:02.479Z,9.55
2019-05-25T19:37:05.452Z,10.00
2019-05-25T19:42:08.825Z,11.28
2019-05-25T19:47:11.798Z,9.50
2019-05-25T19:52:14.967Z,10.32
2019-05-25T19:57:18.092Z,9.33
2019-05-25T20:02:21.246Z,9.03
2019-05-25T20:07:24.678Z,9.20
2019-05-25T20:12:28.072Z,10.70
2019-05-25T20:17:31.406Z,11.53
2019-05-25T20:22:34.658Z,12.63
2019-05-25T20:27:37.754Z,12.07
2019-05-25T20:32:40.887Z,11.83
2019-05-25T20:37:44.336Z,12.80
2019-05-25T20:42:47.806Z,13.10
2019-05-25T20:47:51.082Z,12.80
2019-05-25T20:52:54.521Z,13.78
2019-05-25T20:57:57.690Z,12.35
2019-05-25T21:03:06.321Z,14.43
2019-05-25T21:08:06.050Z,14.40
2019-05-25T21:13:09.393Z,14.67
2019-05-25T21:18:12.625Z,14.63
2019-05-25T21:23:15.740Z,16.00
2019-05-25T21:28:18.863Z,16.55
2019-05-25T21:33:21.959Z,16.05
2019-05-25T21:38:24.985Z,18.07
2019-05-25T21:43:28.052Z,16.05
2019-05-25T21:48:31.111Z,15.95
2019-05-25T21:53:34.174Z,16.73
2019-05-25T21:58:37.368Z,14.87
2019-05-25T22:03:40.456Z,15.75
2019-05-25T22:08:43.443Z,14.60
2019-05-25T22:13:47.010Z,17.35
2019-05-25T22:18:50.268Z,17.75
2019-05-25T22:23:53.461Z,18.90
2019-05-25T22:28:56.595Z,17.77
2019-05-25T22:33:59.909Z,17.00
2019-05-25T22:39:03.917Z,17.20
2019-05-25T22:44:07.021Z,17.87
2019-05-25T22:49:10.119Z,16.52
2019-05-25T22:54:13.255Z,16.60
2019-05-25T22:59:16.560Z,16.70
2019-05-25T23:04:19.630Z,16.67
2019-05-25T23:09:22.749Z,17.42
2019-05-25T23:14:26.177Z,16.32
2019-05-25T23:19:29.249Z,17.12
2019-05-25T23:24:32.378Z,15.83
2019-05-25T23:29:35.515Z,16.02
2019-05-25T23:34:38.576Z,18.07
2019-05-25T23:39:41.722Z,15.88
2019-05-25T23:44:44.822Z,16.97
2019-05-25T23:49:47.912Z,17.62
2019-05-25T23:54:50.915Z,17.00
2019-05-25T23:59:53.976Z,18.62
